Stevensville, MD (21666)

6:57 AM EDT on August 25, 2016 (GMT -0400)
Chesapeake Estates | | Change Station

Elev 13 ft 38.93 °N, 76.36 °W | Updated 22 minutes ago

Clear
Clear
76.4 °F
Feels Like 78 °F
N
4.2
Wind Variable Wind from NE
Gusts 0.0 mph

Today
High -- | Low -- °F
--% Chance of Precip.
Yesterday
High -- | Low -- °F
Precip. -- in
Pressure 30.13 in
Visibility 10.0 miles
Clouds Clear
Heat Index 78 °F
Dew Point 60 °F
Humidity 56%
Rainfall Not available.
Snow Depth Not available.
6:28 AM 7:45 PM
Waning Gibbous, 47% visible
METAR KW29 251040Z AUTO 20008KT 10SM CLR 23/20 A3013 RMK AO2
Pressure 30.13 in
Visibility 10.0 miles
Clouds Clear
Heat Index 78 °F
Dew Point 60 °F
Humidity 56%
Rainfall Not available.
Snow Depth Not available.
6:28 AM 7:45 PM
Waning Gibbous, 47% visible
METAR KW29 251040Z AUTO 20008KT 10SM CLR 23/20 A3013 RMK AO2

10-Day Weather Forecast

Almanac

Astronomy

Aug. 25, 2016 Rise Set
Actual Time
Civil Twilight
Nautical Twilight
Astronomical Twilight
Moon
Length of Visible Light
Length of Day
Tomorrow will be .
, % of the Moon is Illuminated

Today's Extremes

State Highs State Lows

Community

WunderPhotos

Upload Photos

1,934,821 photos uploaded!

WunderBlog® & News

Nearby

Air Quality

  Air Quality AQ Index Pollutant
Not available.

Snow Depth

Station Depth Elevation

Earthquake Activity

City Distance Mag. Time & Date
Minimum magnitude displayed is 2.5.

Coastal Water Temperatures

Place Temperature

Stations

Nearby Weather Stations

Station Location Temp. Windchill Dew Point Humidity Wind Precip. Elev Updated Type
                   

Watches & Warnings

There are currently no watches in effect.